Time;durP1;ratioP1;P1;durP2;ratioP2;P2;SDS_P1;SDS_P2;PMS_P1;PMS_P2;Temp;Humidity;BMP_temperature;BMP_pressure;BME280_temperature;BME280_humidity;BME280_pressure;Samples;Min_cycle;Max_cycle;Signal;HPM_P1;HPM_P2
2022/11/29 00:00:30;;;;;;;;;;;;;;;16.24;60.05;98470.72;2079145;28;20060;-46
2022/11/29 00:01:32;;;;;;;1.65;1.02;;;;;;;16.31;59.92;98484.97;2072883;28;19929;-46
2022/11/29 00:02:34;;;;;;;1.00;0.90;;;;;;;16.35;59.77;98480.06;2074109;28;20045;-45
2022/11/29 00:03:36;;;;;;;1.95;0.80;;;;;;;16.38;59.66;98476.16;2074068;28;20598;-49
2022/11/29 00:04:38;;;;;;;1.00;0.85;;;;;;;16.40;59.48;98477.63;2076853;28;20643;-46
2022/11/29 00:05:38;;;;;;;3.08;0.95;;;;;;;16.41;59.54;98478.47;2070660;28;20070;-46
2022/11/29 00:06:40;;;;;;;;;;;;;;;16.27;59.84;98475.69;2075496;28;20103;-45
2022/11/29 00:07:41;;;;;;;0.80;0.70;;;;;;;16.33;59.75;98475.94;2077886;28;20511;-45
2022/11/29 00:08:42;;;;;;;;;;;;;;;16.22;60.02;98478.09;2069076;28;20059;-46
2022/11/29 00:09:43;;;;;;;1.20;0.82;;;;;;;16.28;59.98;98479.19;2074436;28;19920;-46
2022/11/29 00:10:45;;;;;;;;;;;;;;;16.18;60.09;98476.81;2072721;28;22076;-45
2022/11/29 00:13:06;;;;;;;1.33;1.03;;;;;;;16.25;59.97;98476.91;2080146;28;20040;-47
2022/11/29 00:14:08;;;;;;;;;;;;;;;16.14;60.03;98477.41;2078816;28;21299;-46
2022/11/29 00:15:10;;;;;;;1.00;0.98;;;;;;;16.22;60.08;98475.44;2079818;28;20599;-47
2022/11/29 00:16:12;;;;;;;1.80;1.02;;;;;;;16.24;59.83;98476.06;2081621;28;20130;-45
2022/11/29 00:17:13;;;;;;;1.17;1.05;;;;;;;16.29;59.73;98470.13;2079047;28;20086;-48
2022/11/29 00:18:14;;;;;;;;;;;;;;;16.17;60.00;98475.16;2078961;28;20734;-46
2022/11/29 00:19:15;;;;;;;0.68;0.65;;;;;;;16.19;59.97;98472.31;2078487;28;19925;-45
2022/11/29 00:20:17;;;;;;;0.80;0.70;;;;;;;16.22;59.80;98470.09;2082202;28;20115;-45
2022/11/29 00:21:18;;;;;;;0.70;0.70;;;;;;;16.25;59.82;98474.22;2081150;28;20049;-47
2022/11/29 00:22:21;;;;;;;;;;;;;;;16.13;60.01;98470.38;2078717;28;20404;-49
2022/11/29 00:23:22;;;;;;;1.05;0.82;;;;;;;16.16;60.06;98472.69;2078673;28;19927;-51
2022/11/29 00:24:23;;;;;;;;;;;;;;;16.05;60.19;98469.50;2082253;28;20052;-44
2022/11/29 00:25:24;;;;;;;1.98;1.52;;;;;;;16.11;60.06;98472.44;2080414;28;19929;-49
2022/11/29 00:26:26;;;;;;;;;;;;;;;16.04;60.37;98461.66;2082188;28;20538;-45
2022/11/29 00:27:29;;;;;;;;;;;;;;;15.98;60.45;98465.94;2080412;28;19925;-46
2022/11/29 00:28:30;;;;;;;1.10;0.63;;;;;;;16.07;60.21;98469.31;2082130;28;19936;-50
2022/11/29 00:29:31;;;;;;;;;;;;;;;15.98;60.48;98470.47;2078883;28;20521;-48
2022/11/29 00:30:32;;;;;;;1.20;0.77;;;;;;;16.04;60.39;98462.47;2075081;28;19928;-48
2022/11/29 00:31:34;;;;;;;;;;;;;;;15.98;60.36;98478.47;2076091;28;20049;-48
2022/11/29 00:32:36;;;;;;;0.82;0.80;;;;;;;16.04;60.27;98475.88;2077924;28;19921;-49
2022/11/29 00:33:36;;;;;;;1.30;1.20;;;;;;;16.07;60.10;98466.63;2076302;28;20061;-44
2022/11/29 00:34:38;;;;;;;;;;;;;;;15.98;60.44;98478.47;2080935;28;20501;-45
2022/11/29 00:35:39;;;;;;;1.08;0.98;;;;;;;16.02;60.29;98469.06;2080200;28;19932;-46
2022/11/29 00:36:40;;;;;;;;;;;;;;;15.94;60.47;98477.22;2082551;28;20106;-44
2022/11/29 00:37:41;;;;;;;;;;;;;;;15.88;60.62;98480.63;2081498;28;19925;-45
2022/11/29 00:38:43;;;;;;;1.13;0.90;;;;;;;15.93;60.63;98478.22;2083372;28;20510;-44
2022/11/29 00:39:45;;;;;;;1.85;1.20;;;;;;;16.01;60.27;98476.25;2081017;28;20060;-47
2022/11/29 00:40:50;;;;;;;2.15;1.08;;;;;;;16.05;60.10;98482.06;2082808;28;20064;-46
2022/11/29 00:41:52;;;;;;;1.30;0.95;;;;;;;16.04;59.95;98483.06;2079743;28;20479;-46
2022/11/29 00:42:54;;;;;;;1.27;0.90;;;;;;;16.05;60.04;98476.72;2081326;28;20401;-48
2022/11/29 00:43:56;;;;;;;0.70;0.70;;;;;;;16.06;59.98;98481.03;2075576;28;20144;-45
2022/11/29 00:44:57;;;;;;;0.80;0.75;;;;;;;16.06;59.83;98486.38;2076675;28;20060;-46
2022/11/29 00:45:58;;;;;;;0.73;0.60;;;;;;;16.05;59.98;98479.38;2075481;28;20625;-46
2022/11/29 00:47:00;;;;;;;;;;;;;;;15.92;60.32;98485.41;2079643;28;20053;-47
2022/11/29 00:48:00;;;;;;;1.25;0.73;;;;;;;15.94;60.26;98478.03;2081242;28;19932;-48
2022/11/29 00:49:02;;;;;;;;;;;;;;;15.83;60.36;98482.03;2081679;28;20654;-51
2022/11/29 00:50:04;;;;;;;1.55;0.85;;;;;;;15.90;60.39;98483.94;2080204;28;20411;-48
2022/11/29 00:51:06;;;;;;;1.05;0.90;;;;;;;15.96;60.28;98480.50;2076955;28;20097;-47
2022/11/29 00:52:08;;;;;;;1.33;1.00;;;;;;;15.96;60.17;98475.16;2079273;28;20472;-48
2022/11/29 00:53:08;;;;;;;0.98;0.63;;;;;;;15.96;60.21;98478.66;2080547;28;20060;-48
2022/11/29 00:54:10;;;;;;;;;;;;;;;15.83;60.43;98476.69;2077156;28;20041;-47
2022/11/29 00:55:11;;;;;;;0.95;0.70;;;;;;;15.86;60.47;98470.13;2081884;28;20288;-46
2022/11/29 00:56:12;;;;;;;;;;;;;;;15.77;60.50;98466.75;2081185;28;20044;-50
2022/11/29 00:57:14;;;;;;;1.00;0.90;;;;;;;15.83;60.40;98475.88;2081797;28;19924;-51
2022/11/29 00:58:16;;;;;;;1.98;1.00;;;;;;;15.89;60.22;98477.78;2084214;28;20045;-49
2022/11/29 00:59:18;;;;;;;1.17;0.90;;;;;;;15.91;60.19;98470.41;2077131;28;20059;-49
2022/11/29 01:00:19;;;;;;;0.77;0.77;;;;;;;15.94;60.04;98471.88;2075060;28;20049;-46
2022/11/29 01:01:21;;;;;;;1.17;0.68;;;;;;;15.96;59.90;98470.63;2080713;28;20738;-47
2022/11/29 01:02:21;;;;;;;0.95;0.75;;;;;;;15.96;59.84;98467.97;2083806;28;20049;-44
2022/11/29 01:03:24;;;;;;;;;;;;;;;15.86;60.26;98480.84;2083920;28;20051;-45
2022/11/29 01:04:25;;;;;;;0.95;0.88;;;;;;;15.92;60.18;98471.22;2082673;28;19925;-45
2022/11/29 01:05:26;;;;;;;1.33;0.85;;;;;;;15.97;59.90;98471.50;2084766;28;20060;-49
2022/11/29 01:06:28;;;;;;;;;;;;;;;15.86;60.31;98475.50;2082414;28;20491;-48
2022/11/29 01:07:28;;;;;;;1.02;0.93;;;;;;;15.88;60.18;98468.09;2084213;28;19925;-46
2022/11/29 01:08:30;;;;;;;;;;;;;;;15.81;60.37;98461.84;2082401;28;20059;-46
2022/11/29 01:09:32;;;;;;;1.20;0.80;;;;;;;15.90;60.27;98470.56;2083538;28;19921;-48
2022/11/29 01:10:32;;;;;;;1.23;0.80;;;;;;;15.94;59.97;98455.81;2083961;28;20049;-45
2022/11/29 01:11:34;;;;;;;;;;;;;;;15.82;60.29;98453.66;2083015;28;20360;-46
2022/11/29 01:12:35;;;;;;;1.15;0.85;;;;;;;15.92;60.21;98460.53;2080432;28;19929;-45
2022/11/29 01:13:38;;;;;;;0.75;0.75;;;;;;;15.94;60.04;98455.81;2075280;28;20102;-46
2022/11/29 01:14:39;;;;;;;0.75;0.65;;;;;;;15.97;60.04;98456.25;2078589;28;20337;-46
2022/11/29 01:15:41;;;;;;;;;;;;;;;15.88;60.17;98452.06;2073521;28;21193;-50
2022/11/29 01:16:41;;;;;;;;;;;;;;;15.83;60.36;98449.94;2077057;28;19929;-49
2022/11/29 01:17:43;;;;;;;1.27;1.00;;;;;;;15.88;60.36;98448.53;2074035;28;19920;-47
2022/11/29 01:18:44;;;;;;;0.57;0.52;;;;;;;15.95;60.11;98452.94;2081088;28;20042;-46
2022/11/29 01:19:46;;;;;;;;;;;;;;;15.86;60.20;98448.75;2083300;28;20053;-47
2022/11/29 01:20:54;;;;;;;;;;;;;;;15.79;60.39;98451.31;2084562;28;19925;-49
2022/11/29 01:21:55;;;;;;;0.88;0.70;;;;;;;15.85;60.22;98447.91;2081553;28;19928;-47
2022/11/29 01:22:57;;;;;;;1.17;1.08;;;;;;;15.94;60.15;98445.13;2083587;28;20991;-47
2022/11/29 01:24:00;;;;;;;0.82;0.73;;;;;;;15.98;59.99;98443.72;2072404;28;20055;-46
2022/11/29 01:25:01;;;;;;;1.20;0.80;;;;;;;16.00;59.99;98441.69;2082620;28;20102;-45
2022/11/29 01:26:03;;;;;;;;;;;;;;;15.88;60.20;98440.50;2080443;28;20107;-47
2022/11/29 01:27:04;;;;;;;0.93;0.70;;;;;;;15.91;60.14;98440.13;2084463;28;19921;-44
2022/11/29 01:28:06;;;;;;;;;;;;;;;15.82;60.33;98436.75;2078522;28;20055;-46
2022/11/29 01:29:11;;;;;;;0.77;0.52;;;;;;;15.88;60.22;98435.16;2082256;28;19920;-45
2022/11/29 01:30:13;;;;;;;1.35;0.90;;;;;;;15.92;60.17;98441.81;2075632;28;20561;-44
2022/11/29 01:31:16;;;;;;;2.55;1.20;;;;;;;15.96;59.91;98440.38;2077569;28;20112;-46
2022/11/29 01:32:18;;;;;;;0.90;0.70;;;;;;;15.97;59.94;98434.03;2076788;28;20048;-46
2022/11/29 01:33:19;;;;;;;2.10;0.90;;;;;;;15.97;59.98;98436.72;2082646;28;20045;-45
2022/11/29 01:34:21;;;;;;;;;;;;;;;15.86;60.07;98441.53;2083814;28;20124;-46
2022/11/29 01:35:21;;;;;;;;;;;;;;;15.77;60.36;98439.19;2084726;28;19939;-48
2022/11/29 01:36:24;;;;;;;0.80;0.63;;;;;;;15.84;60.37;98440.06;2082759;28;20653;-45
2022/11/29 01:37:24;;;;;;;1.02;0.90;;;;;;;15.89;60.19;98432.31;2082268;28;20060;-48
2022/11/29 01:38:26;;;;;;;;;;;;;;;15.80;60.33;98438.81;2082777;28;20444;-49
2022/11/29 01:39:27;;;;;;;0.73;0.63;;;;;;;15.85;60.15;98441.72;2083404;28;19936;-48
2022/11/29 01:40:28;;;;;;;;;;;;;;;15.75;60.49;98436.69;2082987;28;20057;-47
2022/11/29 01:41:31;;;;;;;0.75;0.60;;;;;;;15.82;60.30;98436.75;2082705;28;19928;-45
2022/11/29 01:42:33;;;;;;;1.90;0.73;;;;;;;15.87;60.24;98434.34;2083441;28;20801;-45
2022/11/29 01:43:49;;;;;;;0.77;0.77;;;;;;;15.89;60.13;98437.66;2079674;28;20055;-47
2022/11/29 01:45:13;;;;;;;1.17;0.90;;;;;;;15.86;60.08;98436.19;2080069;28;20142;-46
2022/11/29 01:46:14;;;;;;;1.05;0.80;;;;;;;15.88;60.11;98436.00;2081738;28;20087;-45
2022/11/29 01:47:16;;;;;;;;;;;;;;;15.76;60.27;98433.00;2083692;28;20063;-46
2022/11/29 01:48:18;;;;;;;1.30;1.10;;;;;;;15.80;60.20;98434.28;2074196;28;19920;-47
2022/11/29 01:49:24;;;;;;;0.60;0.60;;;;;;;15.84;60.18;98432.88;2083322;28;20120;-47
2022/11/29 01:50:25;;;;;;;0.80;0.80;;;;;;;15.87;59.98;98439.69;2082464;28;20052;-47
2022/11/29 01:51:28;;;;;;;;;;;;;;;15.76;60.35;98438.34;2083369;28;20041;-49
2022/11/29 01:52:31;;;;;;;0.88;0.60;;;;;;;15.81;60.18;98448.47;2084070;28;19944;-47
2022/11/29 01:53:33;;;;;;;0.70;0.70;;;;;;;15.82;60.21;98440.28;2083540;28;20053;-45
2022/11/29 01:54:39;;;;;;;0.63;0.60;;;;;;;15.84;60.18;98440.06;2083203;28;20102;-51
2022/11/29 01:55:47;;;;;;;1.52;0.70;;;;;;;15.85;59.98;98441.72;2082507;28;20052;-46
2022/11/29 01:56:50;;;;;;;0.98;0.90;;;;;;;15.85;60.02;98436.38;2082974;28;20044;-48
2022/11/29 01:57:52;;;;;;;0.85;0.70;;;;;;;15.85;60.03;98439.03;2072453;28;21410;-46
2022/11/29 01:58:53;;;;;;;0.93;0.70;;;;;;;15.86;59.86;98446.88;2076298;28;20219;-46
2022/11/29 02:00:00;;;;;;;0.80;0.70;;;;;;;15.86;59.88;98444.22;2079904;28;22234;-50
2022/11/29 02:01:02;;;;;;;1.40;0.95;;;;;;;15.85;60.07;98431.03;2083829;28;20044;-45
2022/11/29 02:02:10;;;;;;;1.45;0.70;;;;;;;15.85;59.88;98433.69;2081039;28;20045;-45
2022/11/29 02:03:13;;;;;;;0.90;0.68;;;;;;;15.84;60.03;98435.53;2083791;28;20052;-46
2022/11/29 02:04:16;;;;;;;1.10;1.05;;;;;;;15.83;60.08;98431.22;2067692;28;20052;-48
2022/11/29 02:05:18;;;;;;;0.80;0.77;;;;;;;15.84;59.99;98435.53;2078686;28;20052;-47
2022/11/29 02:06:20;;;;;;;0.93;0.88;;;;;;;15.84;59.95;98434.72;2076974;28;20118;-49
2022/11/29 02:07:21;;;;;;;0.73;0.73;;;;;;;15.85;59.92;98431.03;2075732;28;20053;-50
2022/11/29 02:08:25;;;;;;;;;;;;;;;15.72;60.18;98437.06;2075745;28;20136;-48
2022/11/29 02:09:26;;;;;;;0.70;0.60;;;;;;;15.74;60.11;98431.53;2079058;28;20495;-45
2022/11/29 02:10:38;;;;;;;;;;;;;;;15.67;60.33;98438.63;2078811;28;20056;-45
2022/11/29 02:11:58;;;;;;;0.70;0.70;;;;;;;15.68;60.34;98433.09;2074885;28;19925;-45
2022/11/29 02:13:08;;;;;;;1.25;0.73;;;;;;;15.72;60.19;98430.91;2079165;28;20064;-45
2022/11/29 02:14:24;;;;;;;0.65;0.60;;;;;;;15.72;60.16;98434.41;2078602;28;20198;-45
2022/11/29 02:15:41;;;;;;;0.47;0.47;;;;;;;15.73;59.97;98427.19;2082215;28;20055;-46
2022/11/29 02:16:55;;;;;;;1.05;0.98;;;;;;;15.72;60.09;98433.59;2082610;28;20041;-45
2022/11/29 02:18:03;;;;;;;0.90;0.57;;;;;;;15.74;59.94;98428.84;2080770;28;20056;-46
2022/11/29 02:19:21;;;;;;;0.75;0.73;;;;;;;15.74;59.97;98426.19;2081536;28;20124;-45
2022/11/29 02:20:47;;;;;;;0.65;0.65;;;;;;;15.77;59.93;98421.28;2081902;28;20041;-44
2022/11/29 02:21:52;;;;;;;0.77;0.60;;;;;;;15.79;59.82;98423.75;2081417;28;20045;-46
2022/11/29 02:22:58;;;;;;;1.42;0.63;;;;;;;15.83;59.72;98417.84;2082180;28;20659;-47
2022/11/29 02:24:42;;;;;;;1.38;0.93;;;;;;;15.78;59.75;98420.25;2075198;28;20051;-44
2022/11/29 02:25:59;;;;;;;0.93;0.70;;;;;;;15.75;60.01;98417.97;2073315;28;20057;-46
2022/11/29 02:27:25;;;;;;;1.50;0.82;;;;;;;15.75;59.98;98420.66;2075648;28;20477;-45
2022/11/29 02:28:47;;;;;;;1.25;0.82;;;;;;;15.78;60.04;98419.44;2082163;28;20044;-45
2022/11/29 02:30:09;;;;;;;0.90;0.88;;;;;;;15.77;59.87;98429.31;2079222;28;20064;-45
2022/11/29 02:31:32;;;;;;;1.58;0.73;;;;;;;15.78;59.98;98420.25;2077134;28;20513;-47
2022/11/29 02:33:00;;;;;;;0.88;0.70;;;;;;;15.75;60.07;98426.00;2078021;28;20068;-46
2022/11/29 02:34:21;;;;;;;0.93;0.82;;;;;;;15.77;60.07;98423.97;2076702;28;20056;-44
2022/11/29 02:35:37;;;;;;;0.85;0.75;;;;;;;15.78;60.10;98414.91;2073607;28;20049;-45
2022/11/29 02:36:52;;;;;;;0.70;0.70;;;;;;;15.79;60.10;98416.56;2081534;28;20136;-46
2022/11/29 02:38:22;;;;;;;0.70;0.70;;;;;;;15.78;60.00;98417.59;2080444;28;20543;-44
2022/11/29 02:40:01;;;;;;;0.80;0.80;;;;;;;15.77;60.05;98409.78;2080763;28;20569;-45
2022/11/29 02:41:22;;;;;;;0.52;0.52;;;;;;;15.74;60.19;98413.66;2072297;28;20059;-45
2022/11/29 02:42:48;;;;;;;0.85;0.70;;;;;;;15.77;60.08;98413.28;2075841;28;20607;-45
2022/11/29 02:44:03;;;;;;;1.00;0.70;;;;;;;15.78;59.94;98417.59;2076272;28;20049;-45
2022/11/29 02:45:14;;;;;;;0.70;0.70;;;;;;;15.81;59.92;98413.72;2079409;28;20387;-45
2022/11/29 02:46:54;;;;;;;1.02;0.82;;;;;;;15.76;60.09;98419.63;2074994;28;20060;-44
2022/11/29 02:48:14;;;;;;;0.77;0.65;;;;;;;15.77;60.08;98417.81;2080700;28;20138;-47
2022/11/29 02:49:26;;;;;;;0.60;0.60;;;;;;;15.79;60.02;98415.75;2079352;28;20102;-45
2022/11/29 02:50:37;;;;;;;1.70;0.75;;;;;;;15.79;59.97;98416.56;2082948;28;20056;-44
2022/11/29 02:51:46;;;;;;;0.47;0.40;;;;;;;15.82;59.94;98415.34;2081068;28;20052;-45
2022/11/29 02:52:58;;;;;;;0.70;0.70;;;;;;;15.81;59.62;98419.06;2081970;28;20045;-46
2022/11/29 02:54:08;;;;;;;0.70;0.70;;;;;;;15.83;59.78;98422.38;2081114;28;20037;-46
2022/11/29 02:55:14;;;;;;;0.70;0.68;;;;;;;15.83;59.77;98415.19;2082405;28;20662;-44
2022/11/29 02:56:24;;;;;;;1.00;0.73;;;;;;;15.83;59.83;98417.03;2069402;28;20095;-45
2022/11/29 02:57:37;;;;;;;0.75;0.70;;;;;;;15.82;59.79;98418.03;2080666;28;20048;-45
2022/11/29 02:58:51;;;;;;;1.13;0.82;;;;;;;15.80;59.83;98415.56;2081131;28;20765;-45
2022/11/29 03:00:01;;;;;;;1.17;0.75;;;;;;;15.81;59.80;98414.53;2081574;28;20061;-45
2022/11/29 03:01:11;;;;;;;1.15;0.77;;;;;;;15.79;59.84;98426.44;2082983;28;20167;-46
2022/11/29 03:02:21;;;;;;;1.58;0.63;;;;;;;15.80;59.96;98422.75;2082167;28;20052;-45
2022/11/29 03:03:33;;;;;;;1.02;0.93;;;;;;;15.80;59.79;98420.91;2083439;28;20063;-43
2022/11/29 03:04:42;;;;;;;1.25;0.82;;;;;;;15.79;59.81;98427.25;2082495;28;20688;-46
2022/11/29 03:05:52;;;;;;;0.73;0.73;;;;;;;15.78;59.98;98425.63;2080368;28;20103;-44
2022/11/29 03:07:02;;;;;;;0.70;0.60;;;;;;;15.79;59.86;98424.59;2080137;28;20052;-43
2022/11/29 03:08:10;;;;;;;1.52;0.80;;;;;;;15.78;59.95;98420.25;2081269;28;20049;-45
2022/11/29 03:09:20;;;;;;;1.10;0.75;;;;;;;15.79;59.87;98421.91;2080390;28;20048;-46
2022/11/29 03:10:32;;;;;;;1.15;1.05;;;;;;;15.78;59.75;98422.13;2077317;28;20045;-45
2022/11/29 03:11:41;;;;;;;1.13;0.88;;;;;;;15.77;59.81;98423.97;2077983;28;20049;-47
2022/11/29 03:12:45;;;;;;;1.25;0.93;;;;;;;15.78;59.82;98425.63;2081991;28;22033;-44
2022/11/29 03:13:55;;;;;;;1.17;0.93;;;;;;;15.78;59.92;98424.78;2082714;28;20063;-45
2022/11/29 03:15:06;;;;;;;0.75;0.65;;;;;;;15.77;59.90;98423.16;2071455;28;20048;-45
2022/11/29 03:16:15;;;;;;;0.95;0.57;;;;;;;15.76;59.87;98426.81;2080165;28;20053;-45
2022/11/29 03:17:22;;;;;;;1.25;0.98;;;;;;;15.74;59.91;98424.34;2081230;28;20045;-45
2022/11/29 03:18:34;;;;;;;1.65;0.80;;;;;;;15.74;59.91;98426.19;2081738;28;20045;-45
2022/11/29 03:19:53;;;;;;;1.10;0.80;;;;;;;15.72;59.77;98423.72;2081729;28;20048;-45
2022/11/29 03:21:06;;;;;;;0.57;0.57;;;;;;;15.72;59.96;98426.38;2078994;28;20051;-46
2022/11/29 03:22:11;;;;;;;2.38;0.75;;;;;;;15.71;60.01;98419.38;2068489;28;20854;-44
2022/11/29 03:23:20;;;;;;;0.65;0.65;;;;;;;15.72;59.82;98426.38;2075696;28;20080;-44
2022/11/29 03:24:29;;;;;;;0.60;0.60;;;;;;;15.72;59.83;98423.72;2072143;28;20532;-45
2022/11/29 03:25:36;;;;;;;0.65;0.65;;;;;;;15.72;59.93;98417.53;2077194;28;20048;-45
2022/11/29 03:26:41;;;;;;;1.00;0.85;;;;;;;15.73;59.96;98416.50;2080353;28;20040;-45
2022/11/29 03:27:52;;;;;;;0.95;0.75;;;;;;;15.74;59.77;98419.00;2074485;28;21019;-45
2022/11/29 03:29:00;;;;;;;1.10;0.70;;;;;;;15.75;59.65;98417.97;2080186;28;20633;-46
2022/11/29 03:30:06;;;;;;;1.05;0.80;;;;;;;15.77;59.69;98421.28;2082350;28;20106;-47
2022/11/29 03:31:12;;;;;;;0.63;0.60;;;;;;;15.77;59.60;98413.28;2077925;28;20167;-45
2022/11/29 03:32:20;;;;;;;1.02;0.80;;;;;;;15.78;59.68;98414.09;2077916;28;20055;-45
2022/11/29 03:33:27;;;;;;;0.60;0.60;;;;;;;15.79;59.65;98411.22;2075333;28;20087;-44
2022/11/29 03:34:45;;;;;;;0.65;0.65;;;;;;;15.77;59.60;98418.63;2074611;28;20048;-45
2022/11/29 03:35:52;;;;;;;1.25;0.90;;;;;;;15.77;59.77;98410.59;2081676;28;20048;-44
2022/11/29 03:37:01;;;;;;;0.95;0.70;;;;;;;15.76;59.77;98416.13;2081700;28;20041;-45
2022/11/29 03:38:11;;;;;;;0.70;0.70;;;;;;;15.76;59.69;98408.09;2081571;28;20057;-45
2022/11/29 03:39:23;;;;;;;0.57;0.57;;;;;;;15.76;59.80;98416.94;2078067;28;20888;-45
2022/11/29 03:40:29;;;;;;;0.73;0.70;;;;;;;15.75;59.81;98411.81;2072852;28;20049;-46
2022/11/29 03:41:37;;;;;;;0.70;0.70;;;;;;;15.75;59.85;98414.47;2079961;28;20037;-46
2022/11/29 03:42:50;;;;;;;1.15;0.80;;;;;;;15.75;59.77;98415.31;2081506;28;20041;-46
2022/11/29 03:43:57;;;;;;;0.60;0.60;;;;;;;15.75;59.73;98417.16;2081468;28;20041;-44
2022/11/29 03:45:07;;;;;;;0.93;0.70;;;;;;;15.76;59.85;98416.13;2080545;28;20053;-46
2022/11/29 03:46:11;;;;;;;0.95;0.80;;;;;;;15.76;59.92;98406.25;2079693;28;20055;-46
2022/11/29 03:47:17;;;;;;;0.75;0.57;;;;;;;15.77;59.78;98405.25;2081286;28;20123;-45
2022/11/29 03:48:23;;;;;;;0.85;0.80;;;;;;;15.78;59.80;98406.06;2081667;28;20056;-45
2022/11/29 03:49:29;;;;;;;1.25;0.70;;;;;;;15.77;59.68;98407.09;2082820;28;20041;-44
2022/11/29 03:50:36;;;;;;;0.60;0.60;;;;;;;15.76;59.78;98403.56;2081150;28;20041;-47
2022/11/29 03:51:55;;;;;;;0.82;0.80;;;;;;;15.74;59.84;98407.47;2081669;28;20117;-45
2022/11/29 03:53:04;;;;;;;1.15;0.50;;;;;;;15.74;59.73;98405.63;2081532;28;20073;-44
2022/11/29 03:54:10;;;;;;;1.05;0.80;;;;;;;15.75;59.63;98401.94;2075558;28;20053;-45
2022/11/29 03:55:23;;;;;;;0.95;0.77;;;;;;;15.74;59.70;98402.97;2078088;28;20056;-45
2022/11/29 03:56:31;;;;;;;0.88;0.70;;;;;;;15.76;59.86;98403.56;2079910;28;20049;-45
2022/11/29 03:57:39;;;;;;;0.52;0.50;;;;;;;15.77;59.74;98407.09;2076984;28;20584;-47
2022/11/29 03:58:51;;;;;;;0.90;0.60;;;;;;;15.75;59.65;98401.94;2080676;28;20060;-44
2022/11/29 04:00:03;;;;;;;1.00;0.93;;;;;;;15.74;59.68;98397.63;2081024;28;20064;-45
2022/11/29 04:01:30;;;;;;;1.25;0.93;;;;;;;15.71;59.74;98403.34;2080512;28;20049;-45
2022/11/29 04:03:04;;;;;;;0.40;0.40;;;;;;;15.68;59.86;98401.03;2081444;28;20046;-44
2022/11/29 04:04:27;;;;;;;1.42;0.70;;;;;;;15.67;60.00;98398.53;2082986;28;20049;-45
2022/11/29 04:05:48;;;;;;;0.98;0.80;;;;;;;15.69;59.93;98402.69;2083078;28;20110;-46
2022/11/29 04:07:06;;;;;;;1.13;0.73;;;;;;;15.65;60.04;98402.19;2078218;28;20052;-45
2022/11/29 04:08:34;;;;;;;0.88;0.85;;;;;;;15.64;59.96;98399.72;2070096;28;20513;-45
2022/11/29 04:09:56;;;;;;;0.70;0.70;;;;;;;15.64;59.90;98392.53;2079385;28;20954;-46
2022/11/29 04:11:22;;;;;;;0.60;0.60;;;;;;;15.63;59.96;98396.25;2078670;28;20448;-47
2022/11/29 04:12:42;;;;;;;1.02;0.80;;;;;;;15.62;60.00;98391.06;2081197;28;20045;-44
2022/11/29 04:14:05;;;;;;;0.82;0.63;;;;;;;15.62;59.91;98399.09;2081834;28;20049;-45
2022/11/29 04:15:45;;;;;;;1.48;0.80;;;;;;;15.61;60.04;98395.59;2082387;28;20041;-44
2022/11/29 04:17:23;;;;;;;0.88;0.70;;;;;;;15.59;60.06;98391.44;2082032;28;20049;-46
2022/11/29 04:19:11;;;;;;;0.70;0.68;;;;;;;15.56;60.11;98397.19;2082151;28;20053;-44
2022/11/29 04:20:48;;;;;;;0.50;0.47;;;;;;;15.58;60.00;98403.16;2058389;28;20072;-45
2022/11/29 04:22:12;;;;;;;1.17;0.63;;;;;;;15.57;59.84;98396.16;2051968;28;20763;-45
2022/11/29 04:23:45;;;;;;;0.98;0.80;;;;;;;15.58;59.99;98401.31;2079030;28;20064;-44
2022/11/29 04:25:09;;;;;;;0.70;0.50;;;;;;;15.59;60.06;98402.97;2082404;28;20041;-45
2022/11/29 04:26:33;;;;;;;0.80;0.80;;;;;;;15.60;59.88;98407.31;2079176;28;20520;-47
2022/11/29 04:27:47;;;;;;;1.13;0.82;;;;;;;15.65;59.95;98404.88;2080423;28;20051;-46
2022/11/29 04:29:08;;;;;;;0.85;0.55;;;;;;;15.66;59.81;98400.38;2080773;28;20056;-47
2022/11/29 04:30:18;;;;;;;0.85;0.63;;;;;;;15.68;59.93;98403.69;2082059;28;20053;-46
2022/11/29 04:31:34;;;;;;;0.70;0.52;;;;;;;15.67;59.94;98407.38;2081538;28;20544;-47
2022/11/29 04:33:20;;;;;;;0.60;0.60;;;;;;;15.67;60.01;98406.53;2082471;28;20047;-47
2022/11/29 04:34:55;;;;;;;0.50;0.50;;;;;;;15.67;59.87;98401.19;2081771;28;20044;-48
2022/11/29 04:36:24;;;;;;;0.65;0.63;;;;;;;15.68;59.85;98414.41;2079423;28;20061;-44
2022/11/29 04:37:58;;;;;;;0.90;0.75;;;;;;;15.70;59.94;98409.69;2081362;28;20100;-44
2022/11/29 04:39:16;;;;;;;0.88;0.88;;;;;;;15.73;59.91;98400.47;2080617;28;20040;-44
2022/11/29 04:40:38;;;;;;;1.20;0.70;;;;;;;15.73;59.97;98408.47;2081972;28;20065;-45
2022/11/29 04:41:56;;;;;;;1.02;0.65;;;;;;;15.72;59.82;98401.50;2080730;28;20049;-48
2022/11/29 04:43:19;;;;;;;1.33;0.90;;;;;;;15.71;60.18;98408.69;2081836;28;20171;-49
2022/11/29 04:44:41;;;;;;;0.85;0.82;;;;;;;15.75;59.97;98409.13;2081751;28;20053;-47
2022/11/29 04:46:27;;;;;;;0.45;0.45;;;;;;;15.72;59.92;98413.00;2080359;28;20049;-47
2022/11/29 04:47:43;;;;;;;0.70;0.60;;;;;;;15.73;59.99;98409.31;2078202;28;20076;-45
2022/11/29 04:49:10;;;;;;;0.57;0.57;;;;;;;15.74;60.05;98419.00;2080717;28;20040;-46
2022/11/29 04:50:21;;;;;;;0.77;0.70;;;;;;;15.77;59.78;98407.09;2071474;28;20060;-47
2022/11/29 04:51:40;;;;;;;0.57;0.52;;;;;;;15.77;59.89;98407.09;2084105;28;20049;-46
2022/11/29 04:53:09;;;;;;;0.70;0.70;;;;;;;15.77;59.84;98415.13;2083137;28;20048;-46
2022/11/29 04:54:23;;;;;;;0.98;0.77;;;;;;;15.77;59.89;98407.94;2081964;28;20123;-47
2022/11/29 04:55:37;;;;;;;1.00;0.80;;;;;;;15.81;60.07;98411.03;2081772;28;20052;-46
2022/11/29 04:56:44;;;;;;;0.85;0.77;;;;;;;15.88;59.78;98411.09;2081986;28;20107;-46
2022/11/29 04:57:51;;;;;;;0.70;0.70;;;;;;;15.91;59.84;98414.22;2079937;28;20037;-46
2022/11/29 04:59:02;;;;;;;1.23;0.98;;;;;;;15.97;59.71;98401.94;2081775;28;20072;-46
2022/11/29 05:00:07;;;;;;;0.50;0.50;;;;;;;16.02;59.72;98410.22;2081364;28;20101;-46
2022/11/29 05:01:19;;;;;;;0.70;0.60;;;;;;;16.08;59.60;98414.78;2081551;28;20471;-48
2022/11/29 05:02:29;;;;;;;0.70;0.70;;;;;;;16.14;59.68;98405.16;2080692;28;20060;-47
2022/11/29 05:03:37;;;;;;;0.70;0.70;;;;;;;16.18;59.61;98409.09;2078285;28;20110;-46
2022/11/29 05:04:46;;;;;;;0.80;0.80;;;;;;;16.20;59.60;98402.53;2080431;28;20049;-46
2022/11/29 05:05:59;;;;;;;1.13;0.80;;;;;;;16.25;59.46;98405.47;2078012;28;20049;-45
2022/11/29 05:07:08;;;;;;;0.75;0.60;;;;;;;16.25;59.55;98405.47;2080192;28;20764;-46
2022/11/29 05:08:24;;;;;;;1.17;0.88;;;;;;;16.28;59.44;98413.09;2080884;28;20083;-46
2022/11/29 05:09:34;;;;;;;0.57;0.47;;;;;;;16.31;59.50;98409.22;2082050;28;20040;-46
2022/11/29 05:10:44;;;;;;;0.70;0.70;;;;;;;16.35;59.43;98405.13;2082394;28;20045;-45
2022/11/29 05:11:58;;;;;;;0.80;0.80;;;;;;;16.38;59.47;98412.78;2081287;28;20451;-49
2022/11/29 05:13:07;;;;;;;0.77;0.77;;;;;;;16.39;59.47;98401.03;2081595;28;20045;-45
2022/11/29 05:14:15;;;;;;;0.68;0.57;;;;;;;16.43;59.48;98404.16;2081203;28;20045;-46
2022/11/29 05:15:45;;;;;;;1.08;0.80;;;;;;;16.49;59.24;98401.53;2081761;28;20049;-45
2022/11/29 05:16:52;;;;;;;1.33;0.68;;;;;;;16.51;59.45;98402.16;2075782;28;20040;-46
2022/11/29 05:18:04;;;;;;;2.38;0.88;;;;;;;16.53;59.31;98397.44;2079301;28;20057;-48
2022/11/29 05:19:24;;;;;;;0.45;0.43;;;;;;;16.56;59.33;98398.91;2076419;28;20060;-46
2022/11/29 05:20:36;;;;;;;1.02;0.65;;;;;;;16.59;59.26;98398.50;2075718;28;20053;-46
2022/11/29 05:21:51;;;;;;;0.90;0.70;;;;;;;16.60;59.21;98397.47;2074159;28;20084;-47
2022/11/29 05:23:17;;;;;;;0.73;0.70;;;;;;;16.59;59.38;98390.47;2077146;28;20087;-46
2022/11/29 05:24:31;;;;;;;0.60;0.60;;;;;;;16.63;59.41;98397.09;2080823;28;20041;-48
2022/11/29 05:25:42;;;;;;;0.90;0.80;;;;;;;16.68;59.15;98400.00;2082340;28;20057;-46
2022/11/29 05:26:48;;;;;;;;;;;;;;;16.62;59.47;98392.75;2082209;28;20056;-45
2022/11/29 05:27:56;;;;;;;0.85;0.70;;;;;;;16.70;59.26;98395.28;2079407;28;19939;-46
2022/11/29 05:29:03;;;;;;;1.05;1.00;;;;;;;16.75;59.26;98403.53;2081187;28;20057;-47
2022/11/29 05:30:11;;;;;;;0.93;0.63;;;;;;;16.79;59.13;98397.81;2079177;28;20135;-48
2022/11/29 05:31:33;;;;;;;0.95;0.77;;;;;;;16.83;59.06;98402.59;2082482;28;20049;-46
2022/11/29 05:32:39;;;;;;;0.65;0.65;;;;;;;16.87;59.20;98405.69;2078241;28;20130;-46
2022/11/29 05:34:13;;;;;;;1.92;0.80;;;;;;;16.87;59.14;98403.03;2080697;28;20063;-46